Firebaugh, CA (93622)

3:39 AM PST on December 03, 2016 (GMT -0800)
APRSWXNET | | Change Station
Active Advisory: Freeze Warning Active Notice: Public Information Statement

Elev 223 ft 36.81 °N, 120.53 °W | Updated 38 minutes ago

Clear
Clear
36 °F
Feels Like 33 °F
N
4
Wind Variable Wind from South
Gusts 5.0 mph

Today
High -- | Low -- °F
--% Chance of Precip.
Yesterday
High -- | Low -- °F
Precip. -- in
Pressure 30.25 in
Visibility 3.0 miles
Clouds Clear
Windchill 33 °F
Dew Point 30 °F
Humidity 80%
Rainfall in
Snow Depth Not available.
6:58 AM 4:45 PM
Waxing Crescent, 14% visible
METAR KMAE 031053Z AUTO 12004KT 3SM BR CLR 02/01 A3025 RMK AO2 SLP243 T00220006
Pressure 30.25 in
Visibility 3.0 miles
Clouds Clear
Windchill 33 °F
Dew Point 30 °F
Humidity 80%
Rainfall in
Snow Depth Not available.
6:58 AM 4:45 PM
Waxing Crescent, 14% visible
METAR KMAE 031053Z AUTO 12004KT 3SM BR CLR 02/01 A3025 RMK AO2 SLP243 T00220006

10-Day Weather Forecast

Almanac

Astronomy

Dec. 03, 2016 Rise Set
Actual Time
Civil Twilight
Nautical Twilight
Astronomical Twilight
Moon
Length of Visible Light
Length of Day
Tomorrow will be .
, % of the Moon is Illuminated

Today's Extremes

State Highs State Lows

Community

WunderPhotos

Upload Photos

1,955,431 photos uploaded!

WunderBlog® & News

Nearby

Air Quality

  Air Quality AQ Index Pollutant
Not available.

Snow Depth

Station Depth Elevation

Earthquake Activity

City Distance Mag. Time & Date
Minimum magnitude displayed is 2.5.

Coastal Water Temperatures

Place Temperature

Stations

Nearby Weather Stations

Station Location Temp. Windchill Dew Point Humidity Wind Precip. Elev Updated Type
                   

Watches & Warnings

Freeze Warning
Issued: 9:51 PM PST Dec. 2, 2016 – National Weather Service

... Freeze warning remains in effect until 9 am PST Saturday...

* minimum temperatures of 28 to 32 degrees are likely across
much of the valley late Friday night into Saturday morning.
Minimum temperatures as low as 25 degrees are possible in a
few of the coldest rural locations... while urban areas such as
Fresno and Bakersfield remain just above freezing.

* Durations of below freezing temperatures of 3 to 6 hours are
possible.

* Impacts... below freezing temperatures may damage or kill crops
or other sensitive vegetation.

Precautionary/preparedness actions...

A freeze warning means sub-freezing temperatures are imminent or
highly likely. These conditions will kill crops and other
sensitive vegetation.



Dudley